createdAt,value
2023-03-13T00:07:23.266Z,49.72
2023-03-13T00:17:23.319Z,50.17
2023-03-13T00:27:23.691Z,50.99
2023-03-13T00:37:23.976Z,51.74
2023-03-13T00:47:24.280Z,52.52
2023-03-13T00:57:24.541Z,52.99
2023-03-13T01:07:24.827Z,53.69
2023-03-13T01:17:25.097Z,54.31
2023-03-13T01:27:25.304Z,55.31
2023-03-13T01:37:25.577Z,55.32
2023-03-13T01:57:26.277Z,56.11
2023-03-13T02:07:26.492Z,56.48
2023-03-13T02:17:26.811Z,57.28
2023-03-13T02:27:27.128Z,58.52
2023-03-13T02:37:27.412Z,58.33
2023-03-13T02:47:27.727Z,57.89
2023-03-13T02:57:28.139Z,57.99
2023-03-13T03:07:28.262Z,58.58
2023-03-13T03:17:28.756Z,59.21
2023-03-13T03:27:29.011Z,60.26
2023-03-13T03:37:29.477Z,60.55
2023-03-13T03:47:29.701Z,61.30
2023-03-13T03:57:29.786Z,61.81
2023-03-13T04:07:29.932Z,62.02
2023-03-13T04:17:30.187Z,62.29
2023-03-13T04:27:30.236Z,63.50
2023-03-13T04:37:30.350Z,64.20
2023-03-13T04:47:30.572Z,66.21
2023-03-13T04:57:30.852Z,67.08
2023-03-13T05:07:30.876Z,68.44
2023-03-13T05:17:31.007Z,68.76
2023-03-13T05:27:31.089Z,69.43
2023-03-13T05:37:31.216Z,69.94
2023-03-13T05:47:31.326Z,70.26
2023-03-13T05:57:31.459Z,70.54
2023-03-13T06:07:31.583Z,70.23
2023-03-13T06:17:31.751Z,69.03
2023-03-13T06:27:31.940Z,67.90
2023-03-13T06:37:32.178Z,67.41
2023-03-13T06:47:32.368Z,66.41
2023-03-13T06:57:32.595Z,65.40
2023-03-13T07:07:32.792Z,64.62
2023-03-13T07:17:33.358Z,64.20
2023-03-13T07:27:33.397Z,62.86
2023-03-13T07:37:33.547Z,60.58
2023-03-13T07:57:34.102Z,58.33
2023-03-13T08:07:34.378Z,55.94
2023-03-13T08:17:34.821Z,53.63
2023-03-13T08:27:35.198Z,49.34
2023-03-13T08:37:35.748Z,46.44
2023-03-13T08:47:36.226Z,44.61
2023-03-13T08:57:36.868Z,42.22
2023-03-13T09:07:37.590Z,41.64
2023-03-13T09:17:38.378Z,41.36
2023-03-13T09:27:39.490Z,40.77
2023-03-13T09:37:39.788Z,39.31
2023-03-13T09:47:40.631Z,39.85
2023-03-13T09:57:41.151Z,41.34
2023-03-13T10:07:41.816Z,40.08
2023-03-13T10:17:42.552Z,39.58
2023-03-13T10:27:43.455Z,39.78
2023-03-13T10:37:44.038Z,39.96
2023-03-13T10:47:44.830Z,40.28
2023-03-13T10:57:45.405Z,39.79
2023-03-13T11:07:46.245Z,40.05
2023-03-13T11:17:47.097Z,39.51
2023-03-13T11:27:47.885Z,39.00
2023-03-13T11:37:48.766Z,38.89
2023-03-13T11:47:49.665Z,39.48
2023-03-13T11:57:50.555Z,39.75
2023-03-13T12:07:51.270Z,39.34
2023-03-13T12:17:52.130Z,39.33
2023-03-13T12:27:53.032Z,39.13
2023-03-13T12:37:53.788Z,38.70
2023-03-13T12:47:54.739Z,38.09
2023-03-13T12:57:55.649Z,38.49
2023-03-13T13:07:56.512Z,37.41
2023-03-13T13:17:57.392Z,36.95
2023-03-13T13:27:59.124Z,37.48
2023-03-13T13:37:59.425Z,37.67
2023-03-13T13:48:00.462Z,38.76
2023-03-13T13:58:01.561Z,38.76
2023-03-13T14:08:02.573Z,38.80
2023-03-13T14:18:03.647Z,38.67
2023-03-13T14:28:04.860Z,38.62
2023-03-13T14:38:05.808Z,39.35
2023-03-13T14:48:06.900Z,39.88
2023-03-13T14:58:07.948Z,40.43
2023-03-13T15:08:09.010Z,40.96
2023-03-13T15:18:10.033Z,41.28
2023-03-13T15:28:11.024Z,41.51
2023-03-13T15:38:12.026Z,41.65
2023-03-13T15:48:13.020Z,42.04
2023-03-13T15:58:14.129Z,42.30
2023-03-13T16:08:18.515Z,42.25
2023-03-13T16:18:15.897Z,43.17
2023-03-13T16:28:16.858Z,43.90
2023-03-13T16:38:17.746Z,44.33
2023-03-13T16:48:18.933Z,45.06
2023-03-13T16:58:19.957Z,45.32
2023-03-13T17:08:20.662Z,45.49
2023-03-13T17:18:22.111Z,45.37
2023-03-13T17:28:22.667Z,45.74
2023-03-13T17:38:23.893Z,45.83
2023-03-13T17:48:24.639Z,46.04
2023-03-13T17:58:25.698Z,46.42
2023-03-13T18:08:26.596Z,46.83
2023-03-13T18:18:27.231Z,47.23
2023-03-13T18:28:27.976Z,47.91
2023-03-13T18:38:28.861Z,49.19
2023-03-13T18:48:30.174Z,49.89
2023-03-13T18:58:30.894Z,50.52
2023-03-13T19:08:31.720Z,50.93
2023-03-13T19:18:32.944Z,51.25
2023-03-13T19:28:33.022Z,50.99
2023-03-13T19:38:34.100Z,51.37
2023-03-13T19:58:35.865Z,51.95
2023-03-13T20:08:36.843Z,52.64
2023-03-13T20:18:37.330Z,53.81
2023-03-13T20:28:38.017Z,53.81
2023-03-13T20:38:38.638Z,53.36
2023-03-13T20:48:39.653Z,52.70
2023-03-13T20:58:40.252Z,52.19
2023-03-13T21:08:40.858Z,51.75
2023-03-13T21:18:41.562Z,51.47
2023-03-13T21:28:42.144Z,51.28
2023-03-13T21:38:42.664Z,51.21
2023-03-13T21:48:43.492Z,50.78
2023-03-13T21:58:44.085Z,50.03
2023-03-13T22:08:44.651Z,49.96
2023-03-13T22:18:45.109Z,49.73
2023-03-13T22:28:45.778Z,49.24
2023-03-13T22:38:46.713Z,49.54
2023-03-13T22:48:47.274Z,49.51
2023-03-13T22:58:47.719Z,49.82
2023-03-13T23:18:48.958Z,49.89
2023-03-13T23:28:49.485Z,49.93
2023-03-13T23:38:50.076Z,49.92
2023-03-13T23:48:50.756Z,49.97
2023-03-13T23:58:51.403Z,50.35
